createdAt,value
2022-12-03T00:00:00.756Z,24.57
2022-12-03T00:02:29.512Z,19.70
2022-12-03T00:04:56.476Z,22.53
2022-12-03T00:07:23.231Z,17.93
2022-12-03T00:09:49.948Z,18.63
2022-12-03T00:12:16.625Z,18.10
2022-12-03T00:14:45.003Z,22.87
2022-12-03T00:17:11.877Z,18.20
2022-12-03T00:19:38.776Z,22.47
2022-12-03T00:22:05.594Z,24.67
2022-12-03T00:24:32.936Z,23.60
2022-12-03T00:26:59.671Z,22.63
2022-12-03T00:29:26.383Z,23.57
2022-12-03T00:31:53.134Z,22.03
2022-12-03T00:34:19.987Z,25.23
2022-12-03T00:36:46.852Z,25.53
2022-12-03T00:39:13.557Z,24.70
2022-12-03T00:41:40.404Z,23.03
2022-12-03T00:44:07.379Z,24.83
2022-12-03T00:46:34.018Z,19.87
2022-12-03T00:49:01.162Z,25.97
2022-12-03T00:51:28.207Z,19.60
2022-12-03T00:53:54.951Z,22.47
2022-12-03T00:56:21.809Z,22.40
2022-12-03T00:58:48.557Z,23.67
2022-12-03T01:01:15.353Z,22.03
2022-12-03T01:03:42.072Z,22.60
2022-12-03T01:06:08.915Z,26.00
2022-12-03T01:08:35.807Z,28.03
2022-12-03T01:11:02.536Z,22.60
2022-12-03T01:13:29.360Z,22.77
2022-12-03T01:15:56.095Z,23.93
2022-12-03T01:18:22.870Z,22.37
2022-12-03T01:20:49.607Z,24.30
2022-12-03T01:23:16.380Z,26.97
2022-12-03T01:25:43.176Z,19.70
2022-12-03T01:28:09.976Z,27.03
2022-12-03T01:30:56.769Z,24.10
2022-12-03T01:33:23.506Z,24.33
2022-12-03T01:35:50.318Z,26.93
2022-12-03T01:38:17.170Z,24.40
2022-12-03T01:40:43.936Z,25.27
2022-12-03T01:43:10.858Z,27.87
2022-12-03T01:45:37.559Z,26.53
2022-12-03T01:48:04.396Z,25.93
2022-12-03T01:50:33.266Z,26.10
2022-12-03T01:53:03.054Z,21.47
2022-12-03T01:55:31.435Z,22.67
2022-12-03T01:58:00.884Z,24.73
2022-12-03T02:00:28.529Z,23.40
2022-12-03T02:03:00.972Z,20.70
2022-12-03T02:05:30.800Z,24.03
2022-12-03T02:07:59.220Z,20.53
2022-12-03T02:10:37.912Z,23.47
2022-12-03T02:13:10.138Z,24.83
2022-12-03T02:15:39.207Z,22.53
2022-12-03T02:18:08.250Z,22.30
2022-12-03T02:20:44.296Z,22.90
2022-12-03T02:23:35.280Z,25.93
2022-12-03T02:26:02.014Z,24.53
2022-12-03T02:28:28.889Z,23.97
2022-12-03T02:30:56.179Z,20.13
2022-12-03T02:33:22.970Z,25.07
2022-12-03T02:35:49.888Z,23.83
2022-12-03T02:38:20.325Z,23.93
2022-12-03T02:40:49.551Z,23.90
2022-12-03T02:43:18.074Z,22.30
2022-12-03T02:45:48.025Z,21.00
2022-12-03T02:48:26.295Z,15.13
2022-12-03T02:50:57.576Z,12.90
2022-12-03T02:53:31.112Z,12.57
2022-12-03T02:56:00.667Z,14.70
2022-12-03T02:58:31.286Z,12.30
2022-12-03T03:00:59.228Z,11.00
2022-12-03T03:03:28.811Z,14.83
2022-12-03T03:05:56.857Z,12.97
2022-12-03T03:08:25.553Z,11.97
2022-12-03T03:10:53.141Z,18.43
2022-12-03T03:13:21.130Z,12.40
2022-12-03T03:15:48.178Z,14.77
2022-12-03T03:18:15.923Z,12.23
2022-12-03T03:20:43.553Z,12.47
2022-12-03T03:23:17.749Z,12.93
2022-12-03T03:25:49.408Z,12.70
2022-12-03T03:28:17.123Z,17.37
2022-12-03T03:30:44.985Z,17.80
2022-12-03T03:33:13.217Z,15.47
2022-12-03T03:35:40.422Z,16.00
2022-12-03T03:38:08.623Z,16.60
2022-12-03T03:40:35.852Z,12.93
2022-12-03T03:43:02.983Z,20.47
2022-12-03T03:45:30.014Z,15.97
2022-12-03T03:47:59.367Z,19.00
2022-12-03T03:50:29.560Z,23.43
2022-12-03T03:52:57.029Z,21.47
2022-12-03T03:55:24.407Z,23.93
2022-12-03T03:57:51.471Z,24.13
2022-12-03T04:00:18.687Z,26.63
2022-12-03T04:02:46.031Z,26.90
2022-12-03T04:05:19.111Z,26.23
2022-12-03T04:07:45.882Z,27.10
2022-12-03T04:10:33.117Z,28.10
2022-12-03T04:13:00.556Z,25.40
2022-12-03T04:15:27.945Z,30.13
2022-12-03T04:18:13.280Z,28.17
2022-12-03T04:20:40.250Z,26.80
2022-12-03T04:23:08.389Z,27.87
2022-12-03T04:25:53.556Z,25.43
2022-12-03T04:28:38.803Z,26.70
2022-12-03T04:31:25.691Z,29.60
2022-12-03T04:34:11.022Z,28.13
2022-12-03T04:36:38.284Z,26.87
2022-12-03T04:39:05.416Z,26.10
2022-12-03T04:41:32.241Z,28.87
2022-12-03T04:44:17.578Z,23.63
2022-12-03T04:46:44.466Z,29.23
2022-12-03T04:49:11.297Z,32.83
2022-12-03T04:51:38.129Z,28.83
2022-12-03T04:54:04.891Z,23.60
2022-12-03T04:56:32.318Z,33.20
2022-12-03T04:58:59.487Z,23.57
2022-12-03T05:01:26.357Z,30.07
2022-12-03T05:03:53.338Z,24.00
2022-12-03T05:06:20.407Z,28.03
2022-12-03T05:08:47.155Z,25.67
2022-12-03T05:11:14.150Z,26.17
2022-12-03T05:13:43.014Z,26.30
2022-12-03T05:16:10.630Z,28.33
2022-12-03T05:18:37.473Z,26.50
2022-12-03T05:21:04.486Z,23.70
2022-12-03T05:23:31.246Z,24.57
2022-12-03T05:25:58.206Z,24.33
2022-12-03T05:28:25.075Z,24.87
2022-12-03T05:31:06.256Z,25.83
2022-12-03T05:33:42.472Z,21.50
2022-12-03T05:36:18.145Z,21.07
2022-12-03T05:38:54.241Z,22.03
2022-12-03T05:41:39.519Z,24.57
2022-12-03T05:44:06.376Z,22.07
2022-12-03T05:46:33.646Z,23.90
2022-12-03T05:49:00.528Z,23.13
2022-12-03T05:51:27.549Z,23.87
2022-12-03T05:53:54.510Z,27.27
2022-12-03T05:56:21.615Z,24.50
2022-12-03T05:58:48.584Z,26.93
2022-12-03T06:01:15.838Z,29.77
2022-12-03T06:03:42.931Z,26.97
2022-12-03T06:06:10.070Z,27.23
2022-12-03T06:08:37.250Z,25.40
2022-12-03T06:11:04.188Z,22.03
2022-12-03T06:13:31.025Z,27.83
2022-12-03T06:15:57.892Z,26.37
2022-12-03T06:18:25.042Z,26.93
2022-12-03T06:20:51.954Z,24.93
2022-12-03T06:23:19.077Z,25.50
2022-12-03T06:25:46.326Z,25.47
2022-12-03T06:28:13.187Z,30.33
2022-12-03T06:30:40.088Z,23.63
2022-12-03T06:33:06.917Z,25.87
2022-12-03T06:35:33.772Z,27.23
2022-12-03T06:38:00.672Z,24.00
2022-12-03T06:40:27.599Z,27.40
2022-12-03T06:42:54.614Z,23.13
2022-12-03T06:45:21.545Z,26.20
2022-12-03T06:47:48.579Z,24.63
2022-12-03T06:50:15.353Z,27.53
2022-12-03T06:52:42.357Z,23.57
2022-12-03T06:55:10.077Z,27.30
2022-12-03T06:57:36.879Z,24.73
2022-12-03T07:00:06.565Z,28.40
2022-12-03T07:02:33.475Z,26.60
2022-12-03T07:05:00.629Z,26.50
2022-12-03T07:07:28.649Z,28.70
2022-12-03T07:09:55.877Z,29.47
2022-12-03T07:12:22.846Z,32.53
2022-12-03T07:14:49.804Z,31.33
2022-12-03T07:17:16.901Z,30.47
2022-12-03T07:19:43.987Z,33.13
2022-12-03T07:22:10.722Z,26.10
2022-12-03T07:24:37.653Z,29.23
2022-12-03T07:27:04.727Z,27.93
2022-12-03T07:29:31.588Z,27.63
2022-12-03T07:31:58.333Z,27.40
2022-12-03T07:34:25.320Z,28.60
2022-12-03T07:36:52.512Z,25.30
2022-12-03T07:39:19.247Z,27.53
2022-12-03T07:41:46.448Z,26.60
2022-12-03T07:44:14.695Z,132.97
2022-12-03T07:46:42.247Z,40.67
2022-12-03T07:49:09.753Z,38.27
2022-12-03T07:51:37.279Z,32.50
2022-12-03T07:54:05.297Z,29.23
2022-12-03T07:56:32.367Z,28.33
2022-12-03T07:58:59.243Z,33.73
2022-12-03T08:01:26.421Z,30.77
2022-12-03T08:03:53.359Z,27.97
2022-12-03T08:06:20.495Z,24.03
2022-12-03T08:08:47.568Z,30.63
2022-12-03T08:11:15.425Z,29.70
2022-12-03T08:13:42.980Z,28.73
2022-12-03T08:16:17.292Z,30.83
2022-12-03T08:18:45.370Z,34.83
2022-12-03T08:21:15.738Z,30.33
2022-12-03T08:23:42.871Z,30.97
2022-12-03T08:26:28.150Z,26.57
2022-12-03T08:28:55.035Z,31.17
2022-12-03T08:31:32.441Z,30.13
2022-12-03T08:34:35.614Z,28.57
2022-12-03T08:37:09.486Z,28.37
2022-12-03T08:39:44.524Z,29.57
2022-12-03T08:42:35.919Z,28.00
2022-12-03T08:45:32.674Z,26.60
2022-12-03T08:48:22.619Z,25.23
2022-12-03T08:50:50.349Z,24.57
2022-12-03T08:53:30.895Z,32.80
2022-12-03T08:56:00.903Z,32.63
2022-12-03T08:58:36.772Z,25.97
2022-12-03T09:01:41.823Z,26.70
2022-12-03T09:04:27.621Z,25.87
2022-12-03T09:06:55.219Z,33.77
2022-12-03T09:09:23.059Z,31.53
2022-12-03T09:11:50.678Z,25.97
2022-12-03T09:14:18.878Z,29.30
2022-12-03T09:16:46.075Z,26.33
2022-12-03T09:19:13.748Z,29.07
2022-12-03T09:24:48.399Z,30.13
2022-12-03T09:27:15.622Z,29.33
2022-12-03T09:29:42.561Z,40.30
2022-12-03T09:32:13.643Z,31.53
2022-12-03T09:34:44.133Z,28.77
2022-12-03T09:37:11.616Z,32.97
2022-12-03T09:39:41.696Z,27.37
2022-12-03T09:42:10.770Z,29.03
2022-12-03T09:44:38.610Z,28.87
2022-12-03T09:47:07.183Z,28.40
2022-12-03T09:49:37.592Z,27.73
2022-12-03T09:52:06.514Z,31.43
2022-12-03T09:54:34.781Z,27.73
2022-12-03T09:57:04.296Z,30.00
2022-12-03T09:59:33.388Z,32.27
2022-12-03T10:02:01.960Z,32.13
2022-12-03T10:04:30.178Z,27.93
2022-12-03T10:06:58.938Z,33.20
2022-12-03T10:09:29.345Z,27.97
2022-12-03T10:11:59.258Z,30.70
2022-12-03T10:14:27.278Z,36.97
2022-12-03T10:16:54.330Z,48.70
2022-12-03T10:19:32.084Z,31.37
2022-12-03T10:21:58.818Z,28.93
2022-12-03T10:24:29.882Z,28.73
2022-12-03T10:27:02.380Z,26.27
2022-12-03T10:29:34.971Z,30.77
2022-12-03T10:32:07.209Z,30.67
2022-12-03T10:34:39.483Z,43.63
2022-12-03T10:37:20.999Z,48.10
2022-12-03T10:40:08.644Z,66.47
2022-12-03T10:42:38.425Z,38.30
2022-12-03T10:45:23.435Z,35.33
2022-12-03T10:48:06.680Z,43.07
2022-12-03T10:50:35.246Z,35.33
2022-12-03T10:53:02.333Z,36.70
2022-12-03T10:55:38.581Z,34.27
2022-12-03T10:58:05.322Z,34.50
2022-12-03T11:00:32.133Z,31.93
2022-12-03T11:02:58.888Z,31.53
2022-12-03T11:05:27.547Z,32.83
2022-12-03T11:07:54.740Z,30.40
2022-12-03T11:10:23.358Z,36.50
2022-12-03T11:13:32.634Z,30.67
2022-12-03T11:16:05.783Z,31.63
2022-12-03T11:18:38.726Z,32.20
2022-12-03T11:21:11.441Z,36.40
2022-12-03T11:24:03.138Z,33.30
2022-12-03T11:26:29.758Z,39.20
2022-12-03T11:28:58.503Z,31.80
2022-12-03T11:31:37.472Z,35.33
2022-12-03T11:34:22.691Z,31.33
2022-12-03T11:37:11.704Z,30.13
2022-12-03T11:39:50.769Z,38.53
2022-12-03T11:42:26.750Z,41.50
2022-12-03T11:45:02.791Z,36.30
2022-12-03T11:47:59.618Z,40.87
2022-12-03T11:50:50.020Z,45.20
2022-12-03T11:53:27.216Z,36.57
2022-12-03T11:56:10.909Z,34.60
2022-12-03T11:58:42.649Z,31.93
2022-12-03T12:01:09.522Z,33.33
2022-12-03T12:03:48.909Z,37.87
2022-12-03T12:06:18.850Z,32.33
2022-12-03T12:08:51.958Z,35.00
2022-12-03T12:11:19.696Z,34.73
2022-12-03T12:13:55.670Z,32.73
2022-12-03T12:16:38.162Z,32.87
2022-12-03T12:19:31.554Z,34.00
2022-12-03T12:22:18.360Z,35.43
2022-12-03T12:24:47.723Z,34.87
2022-12-03T12:27:23.187Z,34.50
2022-12-03T12:30:01.356Z,31.93
2022-12-03T12:32:44.840Z,21.20
2022-12-03T12:35:17.707Z,36.70
2022-12-03T12:37:58.953Z,34.43
2022-12-03T12:40:30.537Z,32.13
2022-12-03T12:43:03.017Z,31.97
2022-12-03T12:45:37.167Z,36.17
2022-12-03T12:48:10.152Z,30.83
2022-12-03T12:50:37.892Z,35.40
2022-12-03T12:53:10.797Z,35.47
2022-12-03T12:55:41.317Z,27.53
2022-12-03T12:58:15.326Z,26.90
2022-12-03T13:00:58.411Z,23.60
2022-12-03T13:03:28.551Z,20.47
2022-12-03T13:05:57.833Z,25.17
2022-12-03T13:08:31.936Z,25.90
2022-12-03T13:11:02.941Z,30.80
2022-12-03T13:13:44.316Z,34.87
2022-12-03T13:16:28.176Z,33.43
2022-12-03T13:18:59.880Z,35.43
2022-12-03T13:22:10.360Z,30.17
2022-12-03T13:24:44.384Z,34.00
2022-12-03T13:27:17.510Z,28.70
2022-12-03T13:29:51.149Z,33.80
2022-12-03T13:32:27.870Z,32.27
2022-12-03T13:35:24.092Z,34.63
2022-12-03T13:37:50.889Z,30.60
2022-12-03T13:40:31.217Z,42.77
2022-12-03T13:42:58.903Z,35.53
2022-12-03T13:45:39.231Z,33.23
2022-12-03T13:48:18.242Z,42.00
2022-12-03T13:50:46.127Z,39.20
2022-12-03T13:53:29.880Z,35.63
2022-12-03T13:56:27.696Z,36.83
2022-12-03T13:58:56.172Z,44.47
2022-12-03T14:01:23.150Z,48.13
2022-12-03T14:03:50.697Z,49.23
2022-12-03T14:06:17.554Z,41.33
2022-12-03T14:08:44.583Z,40.97
2022-12-03T14:11:35.151Z,43.33
2022-12-03T14:14:02.201Z,43.20
2022-12-03T14:16:29.432Z,53.50
2022-12-03T14:18:57.220Z,57.37
2022-12-03T14:21:24.784Z,44.43
2022-12-03T14:23:51.938Z,43.77
2022-12-03T14:26:19.364Z,42.07
2022-12-03T14:28:46.210Z,41.20
2022-12-03T14:31:13.777Z,50.03
2022-12-03T14:33:40.959Z,44.87
2022-12-03T14:36:08.695Z,44.77
2022-12-03T14:38:35.583Z,44.30
2022-12-03T14:41:02.994Z,41.57
2022-12-03T14:43:30.499Z,42.47
2022-12-03T14:45:58.863Z,40.90
2022-12-03T14:48:27.736Z,45.33
2022-12-03T14:50:55.050Z,46.67
2022-12-03T14:53:27.084Z,43.07
2022-12-03T14:56:10.534Z,48.67
2022-12-03T14:58:37.829Z,41.43
2022-12-03T15:01:05.399Z,45.10
2022-12-03T15:03:32.323Z,41.63
2022-12-03T15:06:00.916Z,43.13
2022-12-03T15:08:29.397Z,47.20
2022-12-03T15:10:57.428Z,40.20
2022-12-03T15:13:24.777Z,41.13
2022-12-03T15:15:52.095Z,45.00
2022-12-03T15:18:19.434Z,59.33
2022-12-03T15:20:46.411Z,43.73
2022-12-03T15:23:14.724Z,41.10
2022-12-03T15:25:42.430Z,49.67
2022-12-03T15:28:10.371Z,38.33
2022-12-03T15:30:37.593Z,48.33
2022-12-03T15:33:05.420Z,47.43
2022-12-03T15:35:33.287Z,47.90
2022-12-03T15:38:01.226Z,47.07
2022-12-03T15:40:29.055Z,47.43
2022-12-03T15:42:56.757Z,59.47
2022-12-03T15:45:24.611Z,44.43
2022-12-03T15:47:51.331Z,47.93
2022-12-03T15:50:18.517Z,43.20
2022-12-03T15:52:45.649Z,35.57
2022-12-03T15:55:12.513Z,44.93
2022-12-03T15:57:39.593Z,54.07
2022-12-03T16:00:08.081Z,41.33
2022-12-03T16:02:35.053Z,41.10
2022-12-03T16:05:07.021Z,36.07
2022-12-03T16:07:33.910Z,42.10
2022-12-03T16:10:02.250Z,58.63
2022-12-03T16:12:29.627Z,70.03
2022-12-03T16:14:56.411Z,46.77
2022-12-03T16:17:24.789Z,62.03
2022-12-03T16:19:53.065Z,42.50
2022-12-03T16:22:20.946Z,38.50
2022-12-03T16:24:47.800Z,40.80
2022-12-03T16:27:14.824Z,43.00
2022-12-03T16:29:42.169Z,40.37
2022-12-03T16:32:09.632Z,45.33
2022-12-03T16:34:36.362Z,47.07
2022-12-03T16:37:04.791Z,44.60
2022-12-03T16:39:31.510Z,41.40
2022-12-03T16:41:58.280Z,34.43
2022-12-03T16:44:51.330Z,39.60
2022-12-03T16:47:18.044Z,34.53
2022-12-03T16:49:45.042Z,37.80
2022-12-03T16:52:12.519Z,35.17
2022-12-03T16:54:39.699Z,36.00
2022-12-03T16:57:06.777Z,37.97
2022-12-03T16:59:33.548Z,35.57
2022-12-03T17:02:00.382Z,34.13
2022-12-03T17:04:27.781Z,37.33
2022-12-03T17:06:54.767Z,33.70
2022-12-03T17:09:22.429Z,44.40
2022-12-03T17:11:51.616Z,43.20
2022-12-03T17:14:19.434Z,37.93
2022-12-03T17:16:50.837Z,32.17
2022-12-03T17:19:18.654Z,38.90
2022-12-03T17:21:45.613Z,34.90
2022-12-03T17:24:12.515Z,36.63
2022-12-03T17:26:41.869Z,35.03
2022-12-03T17:29:09.118Z,31.90
2022-12-03T17:31:41.681Z,36.77
2022-12-03T17:34:09.436Z,33.57
2022-12-03T17:36:42.956Z,35.97
2022-12-03T17:39:10.652Z,38.80
2022-12-03T17:41:37.691Z,34.70
2022-12-03T17:44:10.151Z,34.40
2022-12-03T17:46:38.846Z,35.03
2022-12-03T17:49:09.237Z,31.47
2022-12-03T17:51:37.190Z,42.33
2022-12-03T17:54:04.286Z,37.77
2022-12-03T17:56:31.488Z,37.30
2022-12-03T17:58:59.413Z,35.87
2022-12-03T18:01:26.560Z,35.27
2022-12-03T18:03:54.254Z,45.40
2022-12-03T18:06:22.425Z,33.03
2022-12-03T18:08:50.106Z,35.87
2022-12-03T18:11:17.446Z,40.80
2022-12-03T18:13:46.467Z,33.37
2022-12-03T18:16:15.162Z,42.87
2022-12-03T18:18:42.930Z,34.00
2022-12-03T18:21:12.083Z,36.00
2022-12-03T18:23:39.642Z,39.47
2022-12-03T18:26:07.348Z,39.77
2022-12-03T18:28:35.360Z,44.17
2022-12-03T18:31:02.486Z,44.53
2022-12-03T18:33:29.809Z,38.13
2022-12-03T18:35:58.213Z,43.27
2022-12-03T18:38:30.781Z,44.17
2022-12-03T18:40:58.119Z,43.40
2022-12-03T18:43:28.800Z,38.60
2022-12-03T18:45:56.153Z,41.23
2022-12-03T18:48:23.076Z,46.67
2022-12-03T18:50:51.235Z,40.37
2022-12-03T18:53:20.981Z,40.33
2022-12-03T18:55:49.174Z,42.77
2022-12-03T18:58:16.605Z,42.57
2022-12-03T19:00:43.675Z,37.00
2022-12-03T19:03:10.612Z,44.70
2022-12-03T19:05:38.635Z,116.73
2022-12-03T19:08:14.957Z,55.80
2022-12-03T19:10:43.115Z,47.93
2022-12-03T19:13:12.969Z,39.27
2022-12-03T19:15:40.869Z,46.73
2022-12-03T19:18:08.470Z,39.20
2022-12-03T19:20:36.537Z,39.97
2022-12-03T19:23:04.442Z,43.27
2022-12-03T19:25:31.262Z,45.17
2022-12-03T19:27:57.992Z,42.50
2022-12-03T19:30:24.783Z,38.03
2022-12-03T19:32:52.007Z,36.33
2022-12-03T19:35:26.575Z,35.60
2022-12-03T19:38:26.757Z,41.87
2022-12-03T19:40:59.584Z,36.03
2022-12-03T19:43:26.847Z,41.23
2022-12-03T19:45:54.898Z,44.30
2022-12-03T19:48:23.222Z,39.40
2022-12-03T19:51:07.860Z,35.67
2022-12-03T19:53:41.674Z,37.17
2022-12-03T19:56:14.249Z,37.53
2022-12-03T19:58:42.549Z,37.27
2022-12-03T20:01:18.604Z,38.63
2022-12-03T20:03:47.887Z,36.00
2022-12-03T20:06:17.089Z,28.47
2022-12-03T20:08:44.268Z,28.10
2022-12-03T20:11:19.842Z,30.57
2022-12-03T20:13:48.069Z,28.17
2022-12-03T20:16:16.455Z,27.40
2022-12-03T20:18:46.301Z,29.33
2022-12-03T20:21:15.090Z,22.67
2022-12-03T20:23:42.244Z,22.53
2022-12-03T20:26:14.487Z,27.03
2022-12-03T20:28:41.606Z,29.27
2022-12-03T20:31:13.454Z,28.33
2022-12-03T20:33:42.810Z,27.00
2022-12-03T20:36:10.993Z,24.10
2022-12-03T20:38:38.502Z,23.40
2022-12-03T20:41:13.373Z,25.57
2022-12-03T20:43:40.255Z,24.17
2022-12-03T20:46:19.946Z,26.23
2022-12-03T20:48:46.807Z,27.87
2022-12-03T20:51:16.686Z,29.00
2022-12-03T20:53:44.397Z,25.53
2022-12-03T20:56:16.308Z,24.37
2022-12-03T20:58:43.591Z,31.17
2022-12-03T21:01:22.519Z,25.87
2022-12-03T21:03:50.532Z,35.70
2022-12-03T21:06:18.272Z,29.67
2022-12-03T21:08:45.829Z,26.57
2022-12-03T21:11:16.290Z,32.80
2022-12-03T21:13:44.189Z,30.00
2022-12-03T21:16:15.781Z,30.13
2022-12-03T21:18:42.765Z,30.77
2022-12-03T21:21:11.884Z,25.93
2022-12-03T21:23:39.191Z,33.63
2022-12-03T21:26:08.809Z,31.10
2022-12-03T21:28:35.888Z,40.30
2022-12-03T21:31:05.072Z,37.37
2022-12-03T21:33:32.043Z,47.63
2022-12-03T21:35:59.430Z,47.47
2022-12-03T21:38:27.380Z,48.30
2022-12-03T21:40:54.628Z,45.50
2022-12-03T21:43:24.746Z,48.33
2022-12-03T21:45:51.805Z,42.37
2022-12-03T21:48:19.716Z,43.00
2022-12-03T21:50:57.074Z,44.13
2022-12-03T21:53:23.940Z,42.33
2022-12-03T21:55:50.761Z,48.00
2022-12-03T21:58:17.576Z,40.30
2022-12-03T22:00:44.286Z,43.80
2022-12-03T22:03:11.120Z,45.03
2022-12-03T22:05:38.599Z,61.37
2022-12-03T22:08:05.952Z,41.43
2022-12-03T22:10:33.002Z,44.30
2022-12-03T22:13:00.735Z,40.90
2022-12-03T22:15:28.091Z,38.40
2022-12-03T22:17:54.867Z,33.33
2022-12-03T22:20:21.850Z,38.70
2022-12-03T22:22:48.692Z,32.33
2022-12-03T22:25:15.814Z,37.13
2022-12-03T22:27:42.545Z,35.93
2022-12-03T22:30:09.514Z,35.07
2022-12-03T22:32:36.342Z,35.37
2022-12-03T22:35:03.256Z,37.77
2022-12-03T22:37:30.454Z,41.37
2022-12-03T22:39:57.654Z,39.90
2022-12-03T22:42:24.614Z,40.70
2022-12-03T22:44:51.364Z,39.53
2022-12-03T22:47:18.066Z,37.47
2022-12-03T22:49:45.063Z,41.37
2022-12-03T22:52:11.773Z,44.97
2022-12-03T22:54:38.782Z,42.00
2022-12-03T22:57:05.683Z,45.20
2022-12-03T22:59:32.654Z,49.83
2022-12-03T23:01:59.646Z,42.37
2022-12-03T23:04:26.533Z,41.37
2022-12-03T23:06:53.258Z,42.57
2022-12-03T23:09:20.744Z,43.20
2022-12-03T23:11:47.744Z,47.23
2022-12-03T23:14:14.608Z,47.20
2022-12-03T23:16:41.656Z,46.67
2022-12-03T23:19:08.594Z,47.37
2022-12-03T23:21:36.097Z,48.80
2022-12-03T23:24:04.811Z,49.23
2022-12-03T23:26:36.013Z,47.37
2022-12-03T23:29:04.516Z,45.33
2022-12-03T23:31:33.452Z,50.63
2022-12-03T23:34:00.480Z,44.90
2022-12-03T23:36:29.303Z,49.47
2022-12-03T23:38:56.239Z,48.07
2022-12-03T23:41:24.331Z,51.00
2022-12-03T23:43:51.646Z,43.63
2022-12-03T23:46:21.877Z,51.67
2022-12-03T23:48:48.989Z,49.37
2022-12-03T23:51:24.034Z,54.43
2022-12-03T23:53:53.129Z,50.53
2022-12-03T23:56:26.751Z,50.47
2022-12-03T23:58:53.876Z,46.70
